Time;durP1;ratioP1;P1;durP2;ratioP2;P2;SDS_P1;SDS_P2;PMS_P1;PMS_P2;Temp;Humidity;BMP_temperature;BMP_pressure;BME280_temperature;BME280_humidity;BME280_pressure;Samples;Min_cycle;Max_cycle;Signal;HPM_P1;HPM_P2
2022/01/25 00:08:23;;;;;;;17.50;11.63;;;-0.50;99.90;;;-1.42;100.00;98690.63;4996563;28;20042;-36
2022/01/25 00:28:52;;;;;;;19.20;11.07;;;-0.60;99.90;;;-1.47;100.00;98692.19;4999422;28;20372;-37
2022/01/25 00:31:18;;;;;;;20.77;12.73;;;-0.60;99.90;;;-1.46;100.00;98688.75;4999305;28;20233;-36
2022/01/25 00:33:52;;;;;;;23.73;13.25;;;-0.60;99.90;;;-1.48;100.00;98693.00;4991810;28;20027;-33
2022/01/25 00:36:24;;;;;;;19.95;11.68;;;-0.60;99.90;;;-1.46;100.00;98690.47;4993264;28;20045;-34
2022/01/25 00:38:52;;;;;;;22.02;12.48;;;-0.60;99.90;;;-1.49;100.00;98690.38;4997631;28;20029;-37
2022/01/25 00:41:19;;;;;;;18.60;11.90;;;-0.60;99.90;;;-1.51;100.00;98690.31;4996997;28;20042;-35
2022/01/25 00:43:46;;;;;;;21.10;12.80;;;-0.60;99.90;;;-1.51;100.00;98695.50;4996880;28;20042;-34
2022/01/25 00:46:13;;;;;;;22.45;13.05;;;-0.60;99.90;;;-1.52;100.00;98687.72;4997167;28;20137;-36
2022/01/25 00:48:50;;;;;;;20.73;12.35;;;-0.60;99.90;;;-1.55;100.00;98689.34;4997717;28;20022;-35
2022/01/25 00:56:18;;;;;;;19.50;12.23;;;-0.70;99.90;;;-1.52;100.00;98698.06;4996459;28;20041;-39
2022/01/25 00:58:44;;;;;;;18.55;11.75;;;-0.70;99.90;;;-1.56;100.00;98689.31;4997618;28;20030;-37
2022/01/25 01:01:10;;;;;;;19.88;11.52;;;-0.60;99.90;;;-1.54;100.00;98687.66;4995460;28;20120;-37
2022/01/25 01:03:36;;;;;;;24.88;12.38;;;-0.70;99.90;;;-1.59;100.00;98684.91;4996482;28;20057;-39
2022/01/25 01:06:04;;;;;;;24.13;12.77;;;-0.70;99.90;;;-1.54;100.00;98692.84;4993035;28;20039;-41
2022/01/25 01:08:29;;;;;;;21.75;12.98;;;-0.70;99.90;;;-1.55;100.00;98693.66;4998422;28;20066;-35
2022/01/25 01:10:57;;;;;;;19.08;11.98;;;-0.70;99.90;;;-1.55;100.00;98698.81;4998414;28;20034;-38
2022/01/25 01:16:08;;;;;;;21.05;12.48;;;-0.70;99.90;;;-1.58;100.00;98698.72;4997353;28;20034;-37
2022/01/25 01:37:35;;;;;;;21.45;12.48;;;-0.80;99.90;;;-1.65;100.00;98701.94;4996841;28;20082;-34
2022/01/25 01:43:01;;;;;;;23.75;13.30;;;-0.80;99.90;;;-1.68;100.00;98684.63;4997731;28;20175;-35
2022/01/25 01:48:08;;;;;;;19.85;11.95;;;-0.80;99.90;;;-1.73;100.00;98684.47;4997208;28;20117;-39
2022/01/25 01:50:36;;;;;;;23.52;12.25;;;-0.80;99.90;;;-1.75;100.00;98687.84;4996897;28;20029;-38
2022/01/25 01:53:05;;;;;;;22.70;12.60;;;-0.80;99.90;;;-1.75;100.00;98691.28;4997319;28;20041;-38
2022/01/25 01:55:33;;;;;;;21.20;11.80;;;-0.80;99.90;;;-1.75;100.00;98690.44;4994487;28;20351;-37
2022/01/25 01:58:00;;;;;;;21.77;12.77;;;-0.80;99.90;;;-1.74;100.00;98692.19;4997596;28;20034;-38
2022/01/25 02:00:37;;;;;;;20.17;11.60;;;-0.90;99.90;;;-1.76;100.00;98693.81;4996055;28;20044;-35
2022/01/25 02:03:04;;;;;;;20.63;12.38;;;-0.90;99.90;;;-1.78;100.00;98691.19;4980202;28;20057;-38
2022/01/25 02:05:30;;;;;;;21.85;12.18;;;-0.90;99.90;;;-1.78;100.00;98685.16;4996880;28;20037;-41
2022/01/25 02:07:56;;;;;;;20.35;12.88;;;-0.90;99.90;;;-1.80;100.00;98682.50;4995837;28;20034;-41
2022/01/25 02:10:22;;;;;;;21.75;12.48;;;-0.90;99.90;;;-1.81;100.00;98688.53;4995000;28;20057;-35
2022/01/25 02:12:50;;;;;;;20.60;12.00;;;-0.90;99.90;;;-1.83;100.00;98679.84;4996998;28;20415;-34
2022/01/25 02:15:17;;;;;;;24.88;13.40;;;-1.00;99.90;;;-1.83;100.00;98685.00;4993887;28;20419;-36
2022/01/25 02:23:21;;;;;;;27.55;12.93;;;-0.90;99.90;;;-1.88;100.00;98683.06;4994031;28;20041;-37
2022/01/25 02:25:48;;;;;;;20.13;11.98;;;-1.00;99.90;;;-1.89;100.00;98679.63;4993203;28;20034;-38
2022/01/25 02:28:15;;;;;;;21.27;12.45;;;-1.00;99.90;;;-1.88;100.00;98680.50;4993730;28;20080;-35
2022/01/25 02:30:42;;;;;;;22.90;13.10;;;-0.90;99.90;;;-1.88;100.00;98685.66;4998537;28;20058;-35
2022/01/25 02:33:07;;;;;;;22.88;12.35;;;-1.00;99.90;;;-1.88;100.00;98683.06;4994657;28;20030;-37
2022/01/25 02:35:33;;;;;;;24.42;13.35;;;-1.00;99.90;;;-1.90;100.00;98687.31;4996091;28;20034;-36
2022/01/25 02:37:59;;;;;;;22.20;13.07;;;-1.00;99.90;;;-1.92;100.00;98685.59;4995973;28;20033;-38
2022/01/25 02:40:25;;;;;;;21.95;13.15;;;-1.00;99.90;;;-1.94;100.00;98684.66;4994976;28;20285;-36
2022/01/25 02:42:52;;;;;;;21.65;14.30;;;-1.00;99.90;;;-1.95;100.00;98693.22;4999219;28;20054;-35
2022/01/25 02:45:17;;;;;;;24.20;14.40;;;-1.00;99.90;;;-1.95;100.00;98690.66;4995292;28;20500;-39
2022/01/25 02:50:29;;;;;;;24.45;14.15;;;-1.00;99.90;;;-1.98;100.00;98682.78;4996620;28;20504;-38
2022/01/25 02:52:55;;;;;;;24.20;12.85;;;-1.00;99.90;;;-2.02;100.00;98680.94;4998359;28;20045;-32
2022/01/25 02:55:21;;;;;;;24.70;12.55;;;-1.10;99.90;;;-2.05;100.00;98685.13;4995659;28;20067;-35
2022/01/25 02:57:48;;;;;;;24.63;13.55;;;-1.10;99.90;;;-2.03;100.00;98673.13;4994334;28;20061;-40
2022/01/25 03:00:17;;;;;;;23.30;13.15;;;-1.10;99.90;;;-2.05;100.00;98674.78;4992325;28;20026;-36
2022/01/25 03:02:43;;;;;;;25.10;13.35;;;-1.10;99.90;;;-2.11;100.00;98671.16;4994019;28;20062;-40
2022/01/25 03:05:09;;;;;;;24.98;13.30;;;-1.10;99.90;;;-2.05;100.00;98674.78;4990133;28;20073;-39
2022/01/25 03:07:39;;;;;;;23.92;12.98;;;-1.10;99.90;;;-2.04;100.00;98666.22;4997224;28;20057;-36
2022/01/25 03:10:06;;;;;;;23.45;13.85;;;-1.10;99.90;;;-2.06;100.00;98660.06;4993248;28;20042;-37
2022/01/25 03:12:40;;;;;;;21.30;13.02;;;-1.10;99.90;;;-2.05;100.00;98662.72;4977916;28;20402;-39
2022/01/25 03:17:48;;;;;;;22.92;13.35;;;-1.10;99.90;;;-2.06;100.00;98654.91;4994524;28;20038;-39
2022/01/25 03:20:33;;;;;;;24.05;13.43;;;-1.10;99.90;;;-2.09;100.00;98652.25;4990947;28;20104;-36
2022/01/25 03:23:05;;;;;;;20.95;12.50;;;-1.20;99.90;;;-2.09;100.00;98653.13;4993863;28;20034;-37
2022/01/25 03:25:31;;;;;;;22.35;13.35;;;-1.20;99.90;;;-2.13;100.00;98649.53;4995349;28;20033;-35
2022/01/25 03:27:57;;;;;;;22.73;12.95;;;-1.20;99.90;;;-2.11;100.00;98663.41;4995046;28;20392;-34
2022/01/25 03:30:25;;;;;;;21.30;12.45;;;-1.20;99.90;;;-2.14;100.00;98655.53;4994817;28;20042;-36
2022/01/25 03:32:52;;;;;;;23.02;14.13;;;-1.20;99.90;;;-2.13;100.00;98665.06;4994756;28;20026;-38
2022/01/25 03:35:17;;;;;;;23.35;12.18;;;-1.20;99.90;;;-2.13;100.00;98672.81;5002739;28;20440;-38
2022/01/25 03:37:43;;;;;;;23.08;12.93;;;-1.20;99.90;;;-2.14;100.00;98662.41;4998213;28;20030;-35
2022/01/25 03:40:10;;;;;;;20.85;12.43;;;-1.20;99.90;;;-2.13;100.00;98661.59;4994496;28;20037;-34
2022/01/25 03:42:38;;;;;;;23.85;13.40;;;-1.20;99.90;;;-2.14;100.00;98663.28;4995549;28;20030;-35
2022/01/25 03:45:07;;;;;;;22.63;13.15;;;-1.20;99.90;;;-2.12;100.00;98658.16;4993270;28;20026;-36
2022/01/25 03:47:58;;;;;;;23.23;13.15;;;-1.20;99.90;;;-2.13;100.00;98651.25;4995426;28;20030;-37
2022/01/25 03:50:25;;;;;;;22.15;13.02;;;-1.20;99.90;;;-2.14;100.00;98649.50;4995070;28;20034;-40
2022/01/25 03:52:51;;;;;;;21.58;12.82;;;-1.20;99.90;;;-2.14;100.00;98660.69;4994627;28;20038;-35
2022/01/25 03:55:17;;;;;;;23.15;13.05;;;-1.20;99.90;;;-2.16;100.00;98654.59;4995359;28;20513;-37
2022/01/25 03:57:43;;;;;;;21.50;12.98;;;-1.20;99.90;;;-2.16;100.00;98658.91;4994095;28;20450;-37
2022/01/25 04:00:11;;;;;;;20.92;12.88;;;-1.20;99.90;;;-2.20;100.00;98649.31;4994545;28;20042;-35
2022/01/25 04:02:44;;;;;;;22.67;13.27;;;-1.20;99.90;;;-2.18;100.00;98653.69;4994324;28;20033;-35
2022/01/25 04:05:19;;;;;;;26.13;14.02;;;-1.20;99.90;;;-2.18;100.00;98651.09;4992010;28;20026;-36
2022/01/25 04:07:50;;;;;;;22.88;13.65;;;-1.30;99.90;;;-2.20;100.00;98646.72;4993267;28;20030;-37
2022/01/25 04:10:19;;;;;;;24.92;13.15;;;-1.30;99.90;;;-2.23;100.00;98644.88;4991049;28;20030;-35
2022/01/25 04:12:46;;;;;;;23.00;13.00;;;-1.30;99.90;;;-2.22;100.00;98635.44;4998563;28;20034;-36
2022/01/25 04:15:13;;;;;;;23.23;13.68;;;-1.30;99.90;;;-2.31;100.00;98625.69;4992697;28;20448;-40
2022/01/25 04:17:40;;;;;;;23.85;13.45;;;-1.30;99.90;;;-2.28;100.00;98625.75;4991638;28;20034;-38
2022/01/25 04:20:15;;;;;;;23.95;14.40;;;-1.30;99.90;;;-2.27;100.00;98637.00;4994861;28;20395;-34
2022/01/25 04:25:26;;;;;;;22.85;13.77;;;-1.30;99.90;;;-2.33;100.00;98627.34;4990646;28;20104;-37
2022/01/25 04:27:51;;;;;;;23.30;13.98;;;-1.30;99.90;;;-2.33;100.00;98617.00;4993210;28;20034;-35
2022/01/25 04:30:17;;;;;;;26.80;14.05;;;-1.40;99.90;;;-2.33;100.00;98622.16;4991132;28;20037;-37
2022/01/25 04:32:49;;;;;;;24.25;14.00;;;-1.40;99.90;;;-2.32;100.00;98621.31;4989405;28;20036;-40
2022/01/25 04:51:45;;;;;;;26.08;15.23;;;-1.40;99.90;;;-2.35;100.00;98622.13;4999510;28;20042;-34
2022/01/25 04:54:30;;;;;;;27.23;15.05;;;-1.40;99.90;;;-2.33;100.00;98617.88;4995507;28;20021;-37
2022/01/25 04:57:20;;;;;;;28.33;16.13;;;-1.40;99.90;;;-2.30;100.00;98614.50;4996074;28;20028;-35
2022/01/25 05:05:10;;;;;;;28.17;15.75;;;-1.40;99.90;;;-2.32;100.00;98611.00;4996481;28;20139;-34
2022/01/25 05:07:54;;;;;;;30.33;17.38;;;-1.40;99.90;;;-2.32;100.00;98618.75;4996068;28;20099;-35
2022/01/25 05:10:20;;;;;;;28.70;15.73;;;-1.40;99.90;;;-2.32;100.00;98619.63;4996841;28;20030;-37
2022/01/25 05:12:52;;;;;;;28.88;15.85;;;-1.40;99.90;;;-2.33;100.00;98615.28;4996440;28;20257;-37
2022/01/25 05:15:25;;;;;;;26.83;16.02;;;-1.40;99.90;;;-2.34;100.00;98622.97;4993965;28;20566;-37
2022/01/25 05:23:40;;;;;;;29.02;15.75;;;-1.50;99.90;;;-2.36;100.00;98628.09;4899117;29;20187;-36
2022/01/25 05:26:05;;;;;;;24.98;14.85;;;-1.50;99.90;;;-2.37;100.00;98621.19;4952261;28;20057;-34
2022/01/25 05:28:32;;;;;;;26.10;15.77;;;-1.50;99.90;;;-2.36;100.00;98634.97;4995915;28;20038;-39
2022/01/25 05:30:57;;;;;;;28.60;15.27;;;-1.50;99.90;;;-2.39;100.00;98627.13;4995488;28;20124;-37
2022/01/25 05:33:23;;;;;;;28.23;15.55;;;-1.50;99.90;;;-2.39;100.00;98635.72;4988953;28;20041;-38
2022/01/25 05:35:49;;;;;;;27.65;15.38;;;-1.40;99.90;;;-2.37;100.00;98635.78;5004963;28;20416;-40
2022/01/25 05:38:14;;;;;;;25.58;14.80;;;-1.40;99.90;;;-2.41;100.00;98639.97;4999280;28;20199;-39
2022/01/25 05:40:47;;;;;;;28.52;16.08;;;-1.50;99.90;;;-2.42;100.00;98635.66;4994743;28;20025;-35
2022/01/25 05:46:00;;;;;;;26.98;14.93;;;-1.50;99.90;;;-2.52;100.00;98636.16;4993030;28;20153;-37
2022/01/25 05:48:28;;;;;;;28.02;15.75;;;-1.60;99.90;;;-2.55;100.00;98638.63;4997427;28;20407;-34
2022/01/25 05:50:55;;;;;;;27.83;15.45;;;-1.60;99.90;;;-2.71;100.00;98612.28;4995379;28;20423;-39
2022/01/25 05:53:21;;;;;;;32.45;15.60;;;-1.60;99.90;;;-2.60;100.00;98630.72;4996369;28;20503;-36
2022/01/25 05:55:47;;;;;;;27.75;15.48;;;-1.60;99.90;;;-2.66;100.00;98633.09;4994065;28;20503;-35
2022/01/25 05:58:13;;;;;;;29.13;16.23;;;-1.70;99.90;;;-2.62;100.00;98642.72;4997385;28;20038;-40
2022/01/25 06:00:39;;;;;;;27.80;15.70;;;-1.70;99.90;;;-2.62;100.00;98639.22;4997058;28;20031;-35
2022/01/25 06:03:06;;;;;;;29.15;15.27;;;-1.70;99.90;;;-2.66;100.00;98634.78;4994701;28;20384;-36
2022/01/25 06:05:35;;;;;;;27.35;15.65;;;-1.70;99.90;;;-2.64;100.00;98643.47;4992092;28;20560;-39
2022/01/25 06:08:04;;;;;;;31.55;14.98;;;-1.60;99.90;;;-2.61;100.00;98653.91;4998056;28;20710;-36
2022/01/25 06:10:31;;;;;;;26.67;14.90;;;-1.70;99.90;;;-2.63;100.00;98646.13;4994574;28;20030;-35
2022/01/25 06:12:57;;;;;;;26.48;14.57;;;-1.70;99.90;;;-2.62;100.00;98658.22;4993597;28;20037;-34
2022/01/25 06:15:23;;;;;;;25.58;14.57;;;-1.70;99.90;;;-2.64;100.00;98653.81;4995986;28;20029;-36
2022/01/25 06:17:49;;;;;;;26.80;14.85;;;-1.70;99.90;;;-2.67;100.00;98657.16;4996510;28;20026;-36
2022/01/25 06:20:16;;;;;;;29.13;15.07;;;-1.70;99.90;;;-2.69;100.00;98654.53;4993973;28;20038;-41
2022/01/25 06:22:42;;;;;;;25.08;14.07;;;-1.70;99.90;;;-2.69;100.00;98664.00;4991198;28;20030;-36
2022/01/25 06:25:10;;;;;;;24.13;13.75;;;-1.70;99.90;;;-2.69;100.00;98657.13;4996058;28;20088;-36
2022/01/25 06:27:43;;;;;;;25.80;14.40;;;-1.70;99.90;;;-2.77;100.00;98655.06;4996665;28;20855;-38
2022/01/25 06:30:16;;;;;;;22.88;13.50;;;-1.80;99.90;;;-2.78;100.00;98666.22;4996021;28;20350;-38
2022/01/25 06:32:42;;;;;;;23.50;13.85;;;-1.80;99.90;;;-2.90;100.00;98652.03;4996169;28;20033;-39
2022/01/25 06:35:08;;;;;;;26.50;15.93;;;-1.80;99.90;;;-2.76;100.00;98673.22;4999166;28;20432;-36
2022/01/25 06:37:35;;;;;;;26.13;14.45;;;-1.80;99.90;;;-2.76;100.00;98680.09;4994506;28;20803;-37
2022/01/25 06:40:01;;;;;;;24.33;14.73;;;-1.80;99.90;;;-2.85;100.00;98666.81;4997823;28;20066;-36
2022/01/25 06:42:30;;;;;;;30.65;15.15;;;-1.80;99.90;;;-2.79;100.00;98685.13;4997717;28;20063;-37
2022/01/25 06:44:59;;;;;;;27.08;14.07;;;-1.80;99.90;;;-2.80;100.00;98683.34;4997782;28;20045;-36
2022/01/25 06:47:25;;;;;;;26.13;14.82;;;-1.80;99.90;;;-2.81;100.00;98686.78;4995952;28;20034;-37
2022/01/25 06:49:51;;;;;;;24.95;14.88;;;-1.80;99.90;;;-2.82;100.00;98685.00;4999060;28;20030;-36
2022/01/25 06:52:17;;;;;;;25.92;14.18;;;-1.90;99.90;;;-2.82;100.00;98690.19;4997444;28;20029;-37
2022/01/25 06:54:42;;;;;;;23.08;14.00;;;-1.90;99.90;;;-2.84;100.00;98689.25;4995680;28;20086;-36
2022/01/25 06:57:09;;;;;;;24.95;13.73;;;-1.90;99.90;;;-2.84;100.00;98694.41;4997138;28;20025;-40
2022/01/25 06:59:35;;;;;;;27.02;14.93;;;-1.90;99.90;;;-2.83;100.00;98693.59;4994788;28;20401;-39
2022/01/25 07:02:00;;;;;;;26.60;14.60;;;-1.90;99.90;;;-2.81;100.00;98699.69;4996934;28;20025;-37
2022/01/25 07:04:26;;;;;;;28.77;14.88;;;-1.90;99.90;;;-2.82;100.00;98693.63;4993253;28;20145;-35
2022/01/25 07:06:52;;;;;;;24.27;14.60;;;-1.90;99.90;;;-2.82;100.00;98697.91;4982418;28;20100;-39
2022/01/25 07:09:17;;;;;;;25.92;14.77;;;-1.90;99.90;;;-2.82;100.00;98700.50;4995312;28;20690;-36
2022/01/25 07:11:43;;;;;;;27.77;15.48;;;-1.90;99.90;;;-2.79;100.00;98708.38;4993808;28;20037;-38
2022/01/25 07:14:09;;;;;;;24.77;15.70;;;-1.90;99.90;;;-2.78;100.00;98711.00;4996934;28;20743;-37
2022/01/25 07:16:35;;;;;;;25.33;15.18;;;-1.80;99.90;;;-2.77;100.00;98692.09;4993367;28;20418;-35
2022/01/25 07:19:00;;;;;;;25.98;14.75;;;-1.80;99.90;;;-2.75;100.00;98694.75;4998477;28;20104;-37
2022/01/25 07:21:26;;;;;;;26.25;15.30;;;-1.80;99.90;;;-2.73;100.00;98699.16;4994103;28;20091;-35
2022/01/25 07:23:52;;;;;;;30.45;15.70;;;-1.80;99.90;;;-2.68;100.00;98699.31;4994483;28;20473;-39
2022/01/25 07:26:18;;;;;;;27.50;14.80;;;-1.70;99.90;;;-2.65;100.00;98706.31;4995200;28;20080;-40
2022/01/25 07:28:43;;;;;;;32.03;15.95;;;-1.70;99.90;;;-2.61;100.00;98701.28;4994900;28;20038;-39
2022/01/25 07:31:09;;;;;;;28.63;14.93;;;-1.70;99.90;;;-2.57;100.00;98707.44;4998218;28;20662;-36
2022/01/25 07:33:35;;;;;;;25.63;15.30;;;-1.60;99.90;;;-2.53;100.00;98705.03;4994647;28;20499;-37
2022/01/25 07:36:01;;;;;;;27.90;16.15;;;-1.60;99.90;;;-2.46;100.00;98713.00;4999571;28;20034;-36
2022/01/25 07:38:27;;;;;;;31.83;15.85;;;-1.50;99.90;;;-2.41;100.00;98703.69;4996862;28;20063;-39
2022/01/25 07:40:53;;;;;;;30.58;16.35;;;-1.50;99.90;;;-2.42;100.00;98695.09;4996996;28;20048;-39
2022/01/25 07:43:19;;;;;;;27.88;15.55;;;-1.50;99.90;;;-2.29;100.00;98704.13;4995574;28;20575;-37
2022/01/25 07:45:50;;;;;;;27.05;15.68;;;-1.40;99.90;;;-2.28;100.00;98702.41;4994852;28;20412;-36
2022/01/25 07:48:16;;;;;;;27.63;16.35;;;-1.30;99.90;;;-2.24;100.00;98699.09;4995759;28;20038;-37
2022/01/25 07:50:42;;;;;;;26.80;14.93;;;-1.30;99.90;;;-2.19;100.00;98695.88;4997641;28;20467;-37
2022/01/25 07:53:08;;;;;;;29.05;16.10;;;-1.20;99.90;;;-2.14;100.00;98696.88;4994315;28;20573;-38
2022/01/25 07:55:34;;;;;;;28.08;16.48;;;-1.20;99.90;;;-2.08;100.00;98692.75;4994123;28;20786;-38
2022/01/25 07:58:00;;;;;;;25.42;14.95;;;-1.20;99.90;;;-2.04;100.00;98698.09;4996010;28;20037;-43
2022/01/25 08:00:25;;;;;;;31.67;16.83;;;-1.10;99.90;;;-2.05;100.00;98696.31;4992694;28;20034;-38
2022/01/25 08:02:51;;;;;;;31.00;16.45;;;-1.00;99.90;;;-1.94;100.00;98704.44;4994355;28;20463;-36
2022/01/25 08:05:20;;;;;;;29.52;16.00;;;-1.00;99.90;;;-1.87;100.00;98714.16;4993520;28;20129;-34
2022/01/25 08:07:46;;;;;;;26.20;15.25;;;-1.00;99.90;;;-1.91;100.00;98701.97;4996489;28;20045;-38
2022/01/25 08:10:12;;;;;;;29.55;15.50;;;-0.90;99.90;;;-1.85;100.00;98701.28;4981494;28;20031;-37
2022/01/25 08:12:38;;;;;;;29.23;16.50;;;-0.90;99.90;;;-1.90;100.00;98698.56;4997213;28;20303;-36
2022/01/25 08:15:06;;;;;;;25.85;16.20;;;-0.90;99.90;;;-1.77;100.00;98705.88;4996420;28;20107;-36
2022/01/25 08:17:32;;;;;;;30.58;16.35;;;-0.80;99.90;;;-1.78;100.00;98691.19;4996135;28;20036;-39
2022/01/25 08:19:59;;;;;;;30.25;17.42;;;-0.80;99.90;;;-1.71;100.00;98707.78;4994890;28;20038;-38
2022/01/25 08:22:25;;;;;;;30.95;16.42;;;-0.80;99.90;;;-1.68;100.00;98707.91;4993312;28;20026;-39
2022/01/25 08:24:52;;;;;;;31.90;18.10;;;-0.70;99.90;;;-1.60;100.00;98700.38;4997913;28;20040;-39
2022/01/25 08:27:22;;;;;;;29.30;17.70;;;-0.70;99.90;;;-1.56;100.00;98700.53;4998251;28;20018;-40
2022/01/25 08:29:53;;;;;;;29.63;16.42;;;-0.60;99.90;;;-1.51;100.00;98698.09;4998485;28;20053;-35
2022/01/25 08:32:22;;;;;;;28.58;16.38;;;-0.60;99.90;;;-1.50;100.00;98696.41;4999459;28;20036;-44
2022/01/25 08:34:48;;;;;;;31.13;17.02;;;-0.50;99.90;;;-1.41;100.00;98704.44;4999035;28;20492;-37
2022/01/25 08:37:14;;;;;;;30.88;17.38;;;-0.50;99.90;;;-1.35;100.00;98699.44;4998707;28;20036;-39
2022/01/25 08:39:40;;;;;;;31.92;17.08;;;-0.40;99.90;;;-1.31;100.00;98703.91;4996627;28;20448;-39
2022/01/25 08:42:08;;;;;;;30.73;17.17;;;-0.40;99.90;;;-1.27;100.00;98710.06;4981486;28;20033;-36
2022/01/25 08:44:34;;;;;;;34.33;17.27;;;-0.30;99.90;;;-1.22;100.00;98713.63;4998337;28;20029;-34
2022/01/25 08:46:59;;;;;;;34.10;19.27;;;-0.30;99.90;;;-1.18;100.00;98721.56;4998168;28;20096;-36
2022/01/25 08:49:25;;;;;;;31.42;18.67;;;-0.20;99.90;;;-1.13;100.00;98719.13;4997807;28;20054;-38
2022/01/25 08:51:51;;;;;;;36.67;19.70;;;-0.20;99.90;;;-1.17;100.00;98714.66;4998492;28;20147;-36
2022/01/25 08:54:17;;;;;;;29.95;16.80;;;-0.20;99.90;;;-1.13;100.00;98718.22;4997893;28;20286;-39
2022/01/25 08:56:43;;;;;;;30.92;17.38;;;-0.20;99.90;;;-1.09;100.00;98720.97;4997211;28;20033;-39
2022/01/25 08:59:11;;;;;;;32.60;18.27;;;-0.20;99.90;;;-1.03;100.00;98712.50;4998493;28;20034;-41
2022/01/25 09:01:37;;;;;;;33.80;18.02;;;-0.10;99.90;;;-1.00;100.00;98713.47;4999840;28;20095;-38
2022/01/25 09:04:03;;;;;;;30.60;18.27;;;-0.10;99.90;;;-0.92;100.00;98716.28;4996746;28;20436;-36
2022/01/25 09:06:29;;;;;;;31.77;18.55;;;0.00;99.90;;;-0.87;100.00;98714.72;4996264;28;20037;-37
2022/01/25 09:09:04;;;;;;;32.92;18.52;;;0.00;99.90;;;-0.81;100.00;98712.31;4998914;28;20022;-41
2022/01/25 09:11:31;;;;;;;28.85;17.77;;;0.10;99.90;;;-0.86;100.00;98708.72;4997162;28;20050;-39
2022/01/25 09:13:57;;;;;;;34.55;18.80;;;0.10;99.90;;;-0.86;100.00;98708.72;4997119;28;20773;-36
2022/01/25 09:16:23;;;;;;;32.72;18.40;;;0.10;99.90;;;-0.86;100.00;98707.81;4996603;28;20119;-38
2022/01/25 09:18:49;;;;;;;33.70;17.95;;;0.10;99.90;;;-0.72;100.00;98716.00;4996587;28;20069;-37
2022/01/25 09:21:15;;;;;;;33.33;18.30;;;0.20;99.90;;;-0.71;100.00;98720.34;4998950;28;20479;-41
2022/01/25 09:23:41;;;;;;;28.63;17.98;;;0.20;99.90;;;-0.65;100.00;98717.91;4996469;28;20034;-37
2022/01/25 09:26:06;;;;;;;33.70;18.65;;;0.20;99.90;;;-0.60;100.00;98717.22;4993265;28;20062;-37
2022/01/25 09:28:32;;;;;;;29.90;18.13;;;0.30;99.90;;;-0.52;100.00;98711.38;4996856;28;20030;-39
2022/01/25 09:30:58;;;;;;;32.50;18.58;;;0.30;99.90;;;-0.48;100.00;98716.69;4994238;28;20448;-36
2022/01/25 09:33:25;;;;;;;32.65;19.80;;;0.40;99.90;;;-0.56;100.00;98709.53;4996227;28;20578;-36
2022/01/25 09:35:53;;;;;;;29.95;17.35;;;0.40;99.90;;;-0.47;100.00;98709.78;4999164;28;20471;-35
2022/01/25 09:38:20;;;;;;;32.28;19.30;;;0.40;99.90;;;-0.46;100.00;98698.59;4999465;28;20041;-38
2022/01/25 09:40:46;;;;;;;37.60;20.08;;;0.40;99.90;;;-0.49;100.00;98707.16;4992200;28;20747;-43
2022/01/25 09:43:12;;;;;;;33.95;19.88;;;0.50;99.90;;;-0.37;100.00;98711.81;4994401;28;20042;-38
2022/01/25 09:45:39;;;;;;;32.58;19.02;;;0.50;99.90;;;-0.29;100.00;98702.50;4994954;28;20451;-37
2022/01/25 09:48:07;;;;;;;30.52;19.02;;;0.60;99.90;;;-0.20;100.00;98707.97;4996690;28;20469;-38
2022/01/25 09:50:34;;;;;;;32.75;18.05;;;0.60;99.90;;;-0.13;100.00;98708.13;4992664;28;20029;-37
2022/01/25 09:53:00;;;;;;;36.38;21.45;;;0.70;99.90;;;-0.22;100.00;98690.59;4997100;28;20022;-38
2022/01/25 09:55:31;;;;;;;32.85;19.85;;;0.80;99.90;;;-0.14;100.00;98696.88;4996150;28;20512;-37
2022/01/25 09:57:57;;;;;;;35.45;20.02;;;0.80;99.90;;;-0.08;100.00;98693.56;4999486;28;20029;-34
2022/01/25 10:00:30;;;;;;;32.80;20.42;;;0.80;99.90;;;0.05;100.00;98693.03;4997275;28;20033;-37
2022/01/25 10:03:09;;;;;;;30.20;19.40;;;0.90;99.90;;;0.09;100.00;98692.28;4994299;28;20025;-39
2022/01/25 10:05:43;;;;;;;29.45;19.23;;;1.00;99.90;;;0.17;100.00;98698.53;4997564;28;20037;-35
2022/01/25 10:08:24;;;;;;;34.95;19.95;;;1.00;99.90;;;0.25;100.00;98703.94;4997778;28;20057;-39
2022/01/25 10:10:57;;;;;;;38.57;21.60;;;1.10;99.90;;;0.10;100.00;98681.03;4995435;28;20108;-36
2022/01/25 10:13:44;;;;;;;36.08;20.42;;;1.20;99.90;;;0.30;100.00;98688.44;4995854;28;20030;-36
2022/01/25 10:16:14;;;;;;;33.55;20.50;;;1.20;99.90;;;0.42;100.00;98703.47;4995314;28;20026;-38
2022/01/25 10:19:06;;;;;;;32.65;20.48;;;1.30;99.90;;;0.50;100.00;98704.50;4996462;28;20031;-36
2022/01/25 10:21:34;;;;;;;37.80;21.90;;;1.30;99.90;;;0.46;100.00;98711.34;4996694;28;20063;-36
2022/01/25 10:24:13;;;;;;;41.25;23.00;;;1.40;99.90;;;0.38;100.00;98699.91;4996271;28;20113;-36
2022/01/25 10:26:56;;;;;;;40.72;22.35;;;1.40;99.90;;;0.41;100.00;98712.94;4996770;28;20526;-40
2022/01/25 10:29:34;;;;;;;32.70;20.90;;;1.30;99.90;;;0.55;100.00;98708.97;4995908;28;20049;-38
2022/01/25 10:32:05;;;;;;;36.92;20.98;;;1.40;99.90;;;0.57;100.00;98712.50;4993240;28;20021;-37
2022/01/25 10:34:33;;;;;;;35.63;21.83;;;1.40;99.90;;;0.71;100.00;98711.94;4997001;28;20026;-36
2022/01/25 10:37:00;;;;;;;40.38;23.65;;;1.60;99.90;;;0.65;100.00;98710.06;4996128;28;20199;-36
2022/01/25 10:39:33;;;;;;;37.60;22.77;;;1.50;99.90;;;0.65;100.00;98701.41;4997058;28;20427;-38
2022/01/25 10:42:24;;;;;;;36.50;22.38;;;1.60;99.90;;;0.63;100.00;98708.25;4995995;28;20044;-38
2022/01/25 10:45:16;;;;;;;36.20;22.38;;;1.60;99.90;;;0.65;100.00;98710.06;4995197;28;20612;-37
2022/01/25 10:47:42;;;;;;;37.22;22.08;;;1.60;99.90;;;0.64;100.00;98704.84;5027930;22;20703;-43
2022/01/25 10:50:31;;;;;;;39.38;23.17;;;1.60;99.90;;;0.78;100.00;98705.16;5025959;28;20033;-42
2022/01/25 10:53:15;;;;;;;41.47;23.52;;;1.70;99.90;;;0.78;100.00;98705.16;5027153;28;20059;-48
2022/01/25 10:55:45;;;;;;;42.95;23.38;;;1.70;99.90;;;0.83;100.00;98701.81;5026495;28;20033;-46
2022/01/25 10:58:11;;;;;;;44.85;24.00;;;1.80;99.90;;;0.96;100.00;98702.97;5025036;28;20590;-41
2022/01/25 11:00:42;;;;;;;41.67;23.98;;;1.80;99.90;;;0.98;100.00;98684.81;5026769;28;20389;-48
2022/01/25 11:03:08;;;;;;;41.60;23.25;;;1.90;99.90;;;1.10;100.00;98696.34;5028183;28;20029;-44
2022/01/25 11:05:43;;;;;;;40.05;23.75;;;2.00;99.90;;;1.10;100.00;98682.50;5020216;28;20507;-41
2022/01/25 11:08:15;;;;;;;42.35;23.90;;;2.10;99.90;;;1.11;100.00;98692.94;5026083;28;20135;-42
2022/01/25 11:10:49;;;;;;;38.97;23.40;;;2.10;99.90;;;1.13;100.00;98687.72;5024431;28;20110;-42
2022/01/25 11:13:34;;;;;;;41.53;24.27;;;2.10;99.90;;;1.14;100.00;98685.16;5024645;28;20060;-40
2022/01/25 11:16:04;;;;;;;37.05;22.60;;;2.10;99.90;;;1.27;100.00;98677.63;5025801;28;20411;-43
2022/01/25 11:18:30;;;;;;;38.83;22.85;;;2.20;99.90;;;1.39;100.00;98682.22;5024643;28;20261;-44
2022/01/25 11:21:00;;;;;;;40.17;24.45;;;2.30;99.90;;;1.37;100.00;98692.59;5021546;28;20498;-43
2022/01/25 11:23:26;;;;;;;36.97;22.95;;;2.30;99.90;;;1.43;100.00;98689.22;5023375;28;20025;-43
2022/01/25 11:25:54;;;;;;;41.85;24.63;;;2.30;99.90;;;1.42;100.00;98684.84;5020659;28;20125;-43
2022/01/25 11:28:19;;;;;;;41.88;23.45;;;2.40;99.90;;;1.53;100.00;98683.38;5025894;28;20039;-45
2022/01/25 11:30:47;;;;;;;41.67;25.58;;;2.40;99.90;;;1.55;100.00;98681.66;5020528;28;20028;-41
2022/01/25 11:33:14;;;;;;;37.25;22.92;;;2.50;99.90;;;1.60;100.00;98674.84;5027931;28;20501;-47
2022/01/25 11:35:41;;;;;;;41.47;23.75;;;2.50;99.90;;;1.59;100.00;98674.81;5022000;28;20474;-40
2022/01/25 11:38:07;;;;;;;37.03;24.00;;;2.50;99.90;;;1.59;100.00;98673.06;5024035;28;20521;-42
2022/01/25 11:40:41;;;;;;;44.80;24.92;;;2.50;99.90;;;1.64;100.00;98674.03;5024270;28;20041;-44
2022/01/25 11:43:11;;;;;;;38.65;23.52;;;2.50;99.90;;;1.77;100.00;98661.28;5021919;28;20033;-45
2022/01/25 11:45:45;;;;;;;40.92;23.80;;;2.60;99.90;;;1.85;100.00;98670.09;5020489;28;20041;-42
2022/01/25 11:48:11;;;;;;;47.20;24.63;;;2.70;99.90;;;1.91;100.00;98667.59;5028127;28;20567;-45
2022/01/25 11:50:43;;;;;;;44.08;24.60;;;2.70;99.90;;;1.85;100.00;98676.16;5019946;28;20095;-42